Nearby METAR Reports

 

KPMD - Palmdale, California, USA
Distance from station: NNE 12mi, 19km
Updated: Wed, 18-Oct-2017 7:53pm PDT
Clear
Clear
 Wind from WNW
Wind: WNW 5 mph , 7 km/h
Temperature: 73°F , 23°C
Dew Point: 37°F , 3°C
Humidity: 27%
Barometer: 29.98 inHg , 1015.2 hPa
Clouds: Clear
Visibility: 10 miles , 16 km
2017/10/19 02:53 KPMD 190253Z AUTO 30004KT 10SM CLR 23/03 A2998 RMK AO2 SLP133 T02330028 53006
KWJF - Lancaster/Fox, California, USA
Distance from station: N 17mi, 27km
Updated: Wed, 18-Oct-2017 7:56pm PDT
Clear
Clear
 Wind from W
Wind: W 9 mph , 15 km/h
Temperature: 72°F , 22°C
Dew Point: 14°F , -10°C
Humidity: 11%
Barometer: 29.97 inHg , 1014.9 hPa
Clouds: Clear
Visibility: 10 miles , 16 km
2017/10/19 02:56 KWJF 190256Z 26008KT 10SM CLR 22/M10 A2997 RMK AO2 SLP141 T02221100 51007
 
KMWS - Mount Wilson, California, USA
Distance from station: SSE 18mi, 30km
Updated: Wed, 13-May-2015 6:45am PDT
NOT Current

 Wind from S
Wind: S 3 mph , 6 km/h, Gust: 5 mph , 7 km/h
Temperature: 43°F , 6°C
Dew Point: -0°F , -18°C
Humidity: 16%
2015/05/13 13:45 KMWS 131345Z 18003G04KT 06/M18 RMK SNOW DEPTH 1.00
KWHP - La / Whiteman, California, USA
Distance from station: SW 21mi, 34km
Updated: Wed, 18-Oct-2017 3:55pm PDT
NOT Current
Clear
Clear
 Wind from ESE
Wind: ESE 9 mph , 15 km/h
Temperature: 84°F , 29°C
Dew Point: 43°F , 6°C
Humidity: 23%
Barometer: 29.94 inHg , 1013.9 hPa
Clouds: Clear
Visibility: 10 miles , 16 km
2017/10/18 22:55 KWHP 182255Z 12008KT 10SM SKC 29/06 A2994
 
KBUR - Burbank, California, USA
Distance from station: SSW 22mi, 35km
Updated: Wed, 18-Oct-2017 7:53pm PDT
Clear
Clear
 Wind from calm
Wind: Calm
Temperature: 73°F , 23°C
Dew Point: 52°F , 11°C
Humidity: 47%
Barometer: 29.89 inHg , 1012.2 hPa
Clouds: Clear
Visibility: 10 miles , 16 km
2017/10/19 02:53 KBUR 190253Z 00000KT 10SM CLR 23/11 A2989 RMK AO2 SLP109 T02280106 53001
KVNY - Van Nuys, California, USA
Distance from station: SW 25mi, 40km
Updated: Wed, 18-Oct-2017 7:51pm PDT
Clear
Clear
 Wind from E
Wind: E 5 mph , 7 km/h
Temperature: 72°F , 22°C
Dew Point: 54°F , 12°C
Humidity: 53%
Barometer: 29.89 inHg , 1012.2 hPa
Clouds: Clear
Visibility: 10 miles , 16 km
2017/10/19 02:51 KVNY 190251Z 10004KT 10SM CLR 22/12 A2989 RMK AO2 SLP114 T02220117 53003
 
KEDW - Edwards Afb, California, USA
Distance from station: NNE 33mi, 53km
Updated: Wed, 18-Oct-2017 7:58pm PDT
Partly cloudy
Partly cloudy
 Wind from W
Wind: W 12 mph , 19 km/h
Temperature: 73°F , 23°C
Dew Point: 23°F , -5°C
Humidity: 15%
Barometer: 29.94 inHg , 1013.9 hPa
Clouds: Partly cloudy
Visibility: 40 miles , 64 km
Cloud details: Few Clouds 9000 ft
Partly cloudy 13000 ft
2017/10/19 02:58 KEDW 190258Z 27010KT 40SM FEW090 SCT130 23/M05 A2994 RMK AO2A SLP123 T02341047 53004
KSMO - Santa Monica, California, USA
Distance from station: SSW 35mi, 57km
Updated: Wed, 18-Oct-2017 7:51pm PDT
Clear
Clear
 Wind from varies
Wind: varies 6 mph , 9 km/h
Temperature: 66°F , 19°C
Dew Point: 63°F , 17°C
Humidity: 88%
Barometer: 29.89 inHg , 1012.2 hPa
Clouds: Clear
Visibility: 9 miles , 14 km
2017/10/19 02:51 KSMO 190251Z VRB05KT 9SM CLR 19/17 A2989 RMK AO2 SLP121 T01940172 53001
 
KLAX - Los Angeles, California, USA
Distance from station: SSW 39mi, 63km
Updated: Wed, 18-Oct-2017 7:53pm PDT
Clear
Clear
 Wind from WSW
Wind: WSW 10 mph , 17 km/h
Temperature: 68°F , 20°C
Dew Point: 61°F , 16°C
Humidity: 78%
Barometer: 29.89 inHg , 1012.2 hPa
Clouds: Clear
Visibility: 10 miles , 16 km
2017/10/19 02:53 KLAX 190253Z 24009KT 10SM CLR 20/16 A2989 RMK AO2 SLP120 T02000161 53001
KMHV - Mojave, California, USA
Distance from station: N 41mi, 66km
Updated: Wed, 18-Oct-2017 8:00pm PDT
Clear
Clear
 Wind from WNW
Wind: WNW 14 mph , 22 km/h, Gust: 23 mph , 37 km/h
Temperature: 73°F , 23°C
Dew Point: 12°F , -11°C
Humidity: 9%
Barometer: 29.97 inHg , 1014.9 hPa
Clouds: Clear
Visibility: 10 miles , 16 km
2017/10/19 03:00 KMHV 190300Z AUTO 30012G20KT 10SM CLR 23/M11 A2997 RMK A01
 
KFUL - Fullerton, California, USA
Distance from station: SSE 44mi, 70km
Updated: Wed, 18-Oct-2017 7:53pm PDT
Clear
Clear
 Wind from S
Wind: S 5 mph , 7 km/h
Temperature: 72°F , 22°C
Dew Point: 64°F , 18°C
Humidity: 78%
Barometer: 29.89 inHg , 1012.2 hPa
Clouds: Clear
Visibility: 9 miles , 14 km
2017/10/19 02:53 KFUL 190253Z 17004KT 9SM CLR 22/18 A2989 RMK AO2 SLP120 T02220178 53005
KONT - Ontario, California, USA
Distance from station: SE 45mi, 72km
Updated: Wed, 18-Oct-2017 7:53pm PDT
Clear
Clear
 Wind from WSW
Wind: WSW 6 mph , 9 km/h
Temperature: 75°F , 24°C
Dew Point: 54°F , 12°C
Humidity: 47%
Barometer: 29.91 inHg , 1012.9 hPa
Clouds: Clear
Visibility: 10 miles , 16 km
2017/10/19 02:53 KONT 190253Z 25005KT 10SM CLR 24/12 A2991 RMK AO2 SLP116 T02440117 53006
 
KLGB - Long Beach, California, USA
Distance from station: S 46mi, 74km
Updated: Wed, 18-Oct-2017 7:53pm PDT
Clear
Clear
 Wind from WNW
Wind: WNW 10 mph , 17 km/h
Temperature: 73°F , 23°C
Dew Point: 52°F , 11°C
Humidity: 47%
Barometer: 29.90 inHg , 1012.5 hPa
Clouds: Clear
Visibility: 10 miles , 16 km
2017/10/19 02:53 KLGB 190253Z 30009KT 10SM CLR 23/11 A2990 RMK AO2 SLP123 T02330111 53006
KVCV - Victorville, California, USA
Distance from station: E 46mi, 74km
Updated: Wed, 18-Oct-2017 8:15pm PDT
Partly cloudy
Partly cloudy
 Wind from W
Wind: W 9 mph , 15 km/h
Temperature: 73°F , 23°C
Dew Point: 23°F , -5°C
Humidity: 15%
Barometer: 29.99 inHg , 1015.6 hPa
Clouds: Partly cloudy
Visibility: 10 miles , 16 km
Cloud details: Partly cloudy 12000 ft
2017/10/19 03:15 KVCV 190315Z AUTO 28008KT 10SM SCT120 23/M05 A2999 RMK AO2
 
KTSP - Tehachapi, California, USA
Distance from station: NNW 48mi, 77km
Updated: Wed, 18-Oct-2017 8:15pm PDT
Clear
Clear
 Wind from calm
Wind: Calm
Temperature: 57°F , 14°C
Dew Point: 28°F , -2°C
Humidity: 33%
Barometer: 30.10 inHg , 1019.3 hPa
Clouds: Clear
Visibility: 8 miles , 13 km
2017/10/19 03:15 KTSP 190315Z AUTO 00000KT 8SM CLR 14/M02 A3010 RMK AO2